createdAt,value
2023-01-31T00:03:23.008Z,-1.73
2023-01-31T00:18:25.624Z,-1.76
2023-01-31T00:33:27.883Z,-1.77
2023-01-31T00:48:30.152Z,-2.49
2023-01-31T01:03:32.388Z,-2.82
2023-01-31T01:18:34.853Z,-2.49
2023-01-31T01:33:37.170Z,-2.42
2023-01-31T01:48:39.442Z,-2.23
2023-01-31T02:03:41.694Z,-2.47
2023-01-31T02:18:43.921Z,-2.76
2023-01-31T02:33:46.241Z,-2.57
2023-01-31T02:48:48.444Z,-2.5
2023-01-31T03:03:50.752Z,-2.96
2023-01-31T03:18:53.150Z,-3.34
2023-01-31T03:33:55.482Z,-3.72
2023-01-31T03:48:57.793Z,-3.5
2023-01-31T04:03:59.967Z,-3.19
2023-01-31T04:19:02.334Z,-2.92
2023-01-31T04:34:04.579Z,-2.64
2023-01-31T04:49:07.634Z,-2.47
2023-01-31T05:04:09.880Z,-2.52
2023-01-31T05:19:12.475Z,-2.6
2023-01-31T05:34:14.889Z,-2.78
2023-01-31T05:49:17.241Z,-2.69
2023-01-31T06:04:19.500Z,-4.08
2023-01-31T06:19:21.948Z,-3.5
2023-01-31T06:34:24.161Z,-2.73
2023-01-31T06:49:26.407Z,-2.65
2023-01-31T07:04:28.783Z,-2.78
2023-01-31T07:19:31.229Z,-3.28
2023-01-31T07:34:33.489Z,-3.82
2023-01-31T07:49:35.672Z,-3.93
2023-01-31T08:04:38.211Z,-4.06
2023-01-31T08:19:40.503Z,-4.11
2023-01-31T08:34:43.468Z,-3.98
2023-01-31T08:49:45.772Z,-3.97
2023-01-31T09:04:48.051Z,-4.19
2023-01-31T09:19:50.272Z,-4.16
2023-01-31T09:34:52.691Z,-4.04
2023-01-31T09:49:54.962Z,-3.74
2023-01-31T10:04:57.180Z,-3.62
2023-01-31T10:19:59.758Z,-3.47
2023-01-31T10:35:01.982Z,-3.63
2023-01-31T10:50:04.242Z,-3.77
2023-01-31T11:05:06.468Z,-3.62
2023-01-31T11:20:08.643Z,-3.94
2023-01-31T11:35:10.959Z,-3.91
2023-01-31T11:50:13.167Z,-4.4
2023-01-31T12:05:15.485Z,-4.94
2023-01-31T12:20:27.067Z,-4.67
2023-01-31T12:35:30.102Z,-4.48
2023-01-31T12:50:32.289Z,-4.43
2023-01-31T13:05:34.526Z,-5.16
2023-01-31T13:20:36.807Z,-5.23
2023-01-31T13:35:39.276Z,-4.92
2023-01-31T13:50:41.600Z,-5.04
2023-01-31T14:05:43.837Z,-5.18
2023-01-31T14:20:46.054Z,-4.93
2023-01-31T14:35:48.232Z,-4.63
2023-01-31T14:50:50.637Z,-4.96
2023-01-31T15:05:52.916Z,-4.82
2023-01-31T15:20:55.125Z,-4.61
2023-01-31T15:35:57.347Z,-4.35
2023-01-31T15:50:59.543Z,-4.17
2023-01-31T16:06:01.829Z,-4.78
2023-01-31T16:21:04.087Z,-4.5
2023-01-31T16:36:13.638Z,-4.65
2023-01-31T16:51:17.579Z,-4.24
2023-01-31T17:06:19.957Z,-4.49
2023-01-31T17:21:22.304Z,-4.6
2023-01-31T17:36:24.566Z,-4.76
2023-01-31T17:51:26.768Z,-3.84
2023-01-31T18:06:28.987Z,-3.51
2023-01-31T18:21:31.227Z,-3.07
2023-01-31T18:36:33.482Z,-2.46
2023-01-31T18:51:35.751Z,-2.21
2023-01-31T19:06:38.071Z,-2.24
2023-01-31T19:21:40.332Z,-1.98
2023-01-31T19:36:42.573Z,-2.02
2023-01-31T19:51:44.868Z,-1.54
2023-01-31T20:06:47.123Z,-0.88
2023-01-31T20:21:49.499Z,-0.86
2023-01-31T20:36:51.747Z,-1.2
2023-01-31T20:51:53.957Z,-2.09
2023-01-31T21:06:56.220Z,-1.9
2023-01-31T21:21:58.462Z,-0.58
2023-01-31T21:37:00.683Z,-0.17
2023-01-31T21:52:02.853Z,-0.89
2023-01-31T22:07:05.253Z,-1.17
2023-01-31T22:22:07.994Z,-0.69
2023-01-31T22:37:10.218Z,-0.37
2023-01-31T22:52:12.467Z,-0.69
2023-01-31T23:07:14.758Z,-0.78
2023-01-31T23:22:16.995Z,-0.42
2023-01-31T23:37:19.214Z,-0.56
2023-01-31T23:52:21.454Z,-0.39
